Time;durP1;ratioP1;P1;durP2;ratioP2;P2;SDS_P1;SDS_P2;PMS_P1;PMS_P2;Temp;Humidity;BMP_temperature;BMP_pressure;BME280_temperature;BME280_humidity;BME280_pressure;Samples;Min_cycle;Max_cycle;Signal;HPM_P1;HPM_P2
2023/05/15 00:00:38;;;;;;;1999.90;999.90;;;17.30;99.90;;;;;;5083648;28;20075;-69
2023/05/15 00:03:06;;;;;;;1999.90;999.90;;;17.30;99.90;;;;;;5075732;28;20042;-69
2023/05/15 00:05:33;;;;;;;1999.90;999.90;;;17.40;99.90;;;;;;5079968;28;20039;-69
2023/05/15 00:08:01;;;;;;;1999.90;999.90;;;17.40;99.90;;;;;;5085985;28;20028;-69
2023/05/15 00:10:28;;;;;;;1999.90;999.90;;;17.50;99.90;;;;;;5075079;28;20043;-71
2023/05/15 00:12:58;;;;;;;1999.90;999.90;;;17.50;99.90;;;;;;5086424;28;20501;-72
2023/05/15 00:15:26;;;;;;;1999.90;999.90;;;17.50;99.90;;;;;;5076317;28;20032;-69
2023/05/15 00:17:54;;;;;;;1999.90;999.90;;;17.50;99.90;;;;;;5059037;28;20024;-67
2023/05/15 00:20:21;;;;;;;1999.90;999.90;;;17.50;99.90;;;;;;5079358;28;20220;-68
2023/05/15 00:22:48;;;;;;;1999.90;999.90;;;17.50;99.90;;;;;;5070297;28;20024;-68
2023/05/15 00:25:18;;;;;;;1999.90;999.90;;;17.50;99.90;;;;;;5078893;28;20394;-68
2023/05/15 00:27:46;;;;;;;1999.90;999.90;;;17.60;99.90;;;;;;5083283;28;20238;-67
2023/05/15 00:30:14;;;;;;;1999.90;999.90;;;17.70;99.90;;;;;;5080790;28;20546;-69
2023/05/15 00:32:42;;;;;;;1999.90;999.90;;;17.80;99.90;;;;;;5083500;28;20028;-69
2023/05/15 00:35:09;;;;;;;1999.90;999.90;;;17.90;99.90;;;;;;5078932;28;20810;-69
2023/05/15 00:37:36;;;;;;;1999.90;999.90;;;18.00;99.90;;;;;;5082791;28;20112;-68
2023/05/15 00:40:04;;;;;;;1999.90;999.90;;;18.00;99.90;;;;;;5076916;28;20111;-69
2023/05/15 00:42:32;;;;;;;1999.90;999.90;;;18.20;99.90;;;;;;5086443;28;20033;-69
2023/05/15 00:45:01;;;;;;;1999.90;999.90;;;18.30;99.90;;;;;;5078024;28;20043;-69
2023/05/15 00:47:29;;;;;;;1999.90;999.90;;;18.50;99.90;;;;;;5089547;28;20039;-69
2023/05/15 00:49:57;;;;;;;1999.90;999.90;;;18.70;99.90;;;;;;5086165;28;20043;-69
2023/05/15 00:52:25;;;;;;;1999.90;999.90;;;18.90;99.90;;;;;;5088496;28;20260;-69
2023/05/15 00:54:52;;;;;;;1999.90;999.90;;;19.10;99.90;;;;;;5084958;28;20035;-69
2023/05/15 00:57:20;;;;;;;1999.90;999.90;;;19.30;99.90;;;;;;5094700;28;20027;-69
2023/05/15 00:59:51;;;;;;;1999.90;999.90;;;19.30;99.90;;;;;;5088802;28;20048;-69
2023/05/15 01:02:18;;;;;;;1999.90;999.90;;;19.40;99.90;;;;;;5084015;28;20024;-70
2023/05/15 01:04:46;;;;;;;1999.90;999.90;;;19.60;99.90;;;;;;5084992;28;20067;-69
2023/05/15 01:07:14;;;;;;;1999.90;999.90;;;19.70;99.90;;;;;;5080345;28;20063;-70
2023/05/15 01:09:46;;;;;;;1999.90;999.90;;;19.90;99.90;;;;;;5064837;28;20031;-70
2023/05/15 01:12:16;;;;;;;1999.90;999.90;;;20.20;99.90;;;;;;5091152;28;20127;-67
2023/05/15 01:14:43;;;;;;;1999.90;999.90;;;20.40;99.90;;;;;;5077557;28;20426;-68
2023/05/15 01:17:11;;;;;;;1999.90;999.90;;;20.60;99.90;;;;;;5078157;28;20024;-69
2023/05/15 01:19:39;;;;;;;1999.90;999.90;;;20.60;99.90;;;;;;5078198;28;20070;-68
2023/05/15 01:22:27;;;;;;;1999.90;999.90;;;20.70;99.90;;;;;;5086647;28;20024;-69
2023/05/15 01:25:15;;;;;;;1999.90;999.90;;;20.80;99.90;;;;;;5082212;28;20024;-69
2023/05/15 01:27:56;;;;;;;1999.90;999.90;;;20.90;99.90;;;;;;5078374;28;20046;-68
2023/05/15 01:30:44;;;;;;;1999.90;999.90;;;20.90;99.90;;;;;;5079207;28;20098;-69
2023/05/15 01:33:34;;;;;;;1999.90;999.90;;;21.20;99.90;;;;;;5089897;28;20020;-70
2023/05/15 01:36:26;;;;;;;1999.90;999.90;;;21.30;99.90;;;;;;5085133;28;20477;-70
2023/05/15 01:38:57;;;;;;;1999.90;999.90;;;21.40;99.90;;;;;;5071237;28;20033;-68
2023/05/15 01:41:27;;;;;;;1999.90;999.90;;;21.50;99.90;;;;;;5079764;28;20036;-69
2023/05/15 01:44:11;;;;;;;1999.90;999.90;;;21.70;99.90;;;;;;5089166;28;20036;-70
2023/05/15 01:46:45;;;;;;;1999.90;999.90;;;21.70;99.90;;;;;;5079443;28;20020;-68
2023/05/15 01:49:15;;;;;;;1999.90;999.90;;;21.60;99.90;;;;;;5076659;28;20521;-69
2023/05/15 01:51:47;;;;;;;1999.90;999.90;;;21.60;99.90;;;;;;5079190;28;20390;-68
2023/05/15 01:54:15;;;;;;;1999.90;999.90;;;21.60;99.90;;;;;;5085701;28;20059;-68
2023/05/15 01:56:44;;;;;;;1999.90;999.90;;;21.50;99.90;;;;;;5085690;28;20143;-69
2023/05/15 01:59:15;;;;;;;1999.90;999.90;;;21.40;99.90;;;;;;5084866;28;20113;-70
2023/05/15 02:01:44;;;;;;;1999.90;999.90;;;21.40;99.90;;;;;;5077884;28;20115;-69
2023/05/15 02:04:13;;;;;;;1999.90;999.90;;;21.50;99.90;;;;;;5050547;28;20443;-68
2023/05/15 02:06:41;;;;;;;1999.90;999.90;;;21.90;99.90;;;;;;5065448;28;20032;-69
2023/05/15 02:09:09;;;;;;;1999.90;999.90;;;22.20;99.90;;;;;;5074401;28;20036;-68
2023/05/15 02:11:37;;;;;;;1999.90;999.90;;;22.20;99.90;;;;;;5086342;28;20111;-69
2023/05/15 02:14:06;;;;;;;1999.90;999.90;;;22.30;99.90;;;;;;5082413;28;20492;-70
2023/05/15 02:16:34;;;;;;;1999.90;999.90;;;22.40;99.90;;;;;;5079724;28;20090;-70
2023/05/15 02:19:01;;;;;;;1999.90;999.90;;;22.50;99.90;;;;;;5069726;28;20032;-69
2023/05/15 02:21:29;;;;;;;1999.90;999.90;;;23.40;99.90;;;;;;5088863;28;20086;-69
2023/05/15 02:23:56;;;;;;;1999.90;999.90;;;24.50;99.90;;;;;;5086312;28;20032;-69
2023/05/15 02:26:42;;;;;;;1999.90;999.90;;;25.00;99.90;;;;;;5088246;28;20117;-70
2023/05/15 02:29:15;;;;;;;;;;;25.50;99.40;;;;;;5084497;28;20024;-70
2023/05/15 02:32:10;;;;;;;1999.90;999.90;;;25.60;99.20;;;;;;5093948;28;20358;-69
2023/05/15 02:35:06;;;;;;;1999.90;999.90;;;25.40;98.40;;;;;;5089179;28;20028;-69
2023/05/15 02:37:38;;;;;;;1999.90;999.90;;;25.40;98.80;;;;;;5086948;28;20482;-70
2023/05/15 02:40:11;;;;;;;1999.90;999.90;;;25.50;99.00;;;;;;5085233;28;20036;-69
2023/05/15 02:42:40;;;;;;;1999.90;999.90;;;25.70;99.30;;;;;;5069661;28;20051;-69
2023/05/15 02:45:09;;;;;;;1999.90;999.90;;;25.80;98.40;;;;;;5073171;28;20097;-69
2023/05/15 02:47:37;;;;;;;1999.90;999.90;;;25.80;98.20;;;;;;5094490;28;20020;-69
2023/05/15 02:50:06;;;;;;;1999.90;999.90;;;25.70;98.50;;;;;;5086745;28;20545;-68
2023/05/15 02:52:34;;;;;;;1999.90;999.90;;;25.00;99.00;;;;;;5095004;28;20458;-70
2023/05/15 02:55:01;;;;;;;1999.90;999.90;;;24.70;97.60;;;;;;5091612;28;20039;-69
2023/05/15 02:57:29;;;;;;;1999.90;999.90;;;24.70;97.40;;;;;;5093486;28;20115;-69
2023/05/15 02:59:57;;;;;;;1999.90;999.90;;;24.90;97.80;;;;;;5088999;28;20063;-69
2023/05/15 03:02:24;;;;;;;1999.90;999.90;;;25.00;96.30;;;;;;5098198;28;20085;-70
2023/05/15 03:04:52;;;;;;;1999.90;999.90;;;24.90;96.50;;;;;;5090376;28;20039;-70
2023/05/15 03:07:19;;;;;;;1999.90;999.90;;;25.00;96.70;;;;;;5092300;28;20058;-70
2023/05/15 03:09:47;;;;;;;1999.90;999.90;;;25.20;96.40;;;;;;5091986;28;20053;-69
2023/05/15 03:12:15;;;;;;;1999.90;999.90;;;25.30;96.30;;;;;;5091595;28;20034;-70
2023/05/15 03:14:42;;;;;;;1999.90;999.90;;;25.30;96.80;;;;;;5089788;28;20024;-70
2023/05/15 03:17:10;;;;;;;1999.90;999.90;;;24.60;96.60;;;;;;5091605;28;20099;-69
2023/05/15 03:19:37;;;;;;;1999.90;999.90;;;23.70;96.50;;;;;;5089550;28;20028;-70
2023/05/15 03:22:04;;;;;;;1999.90;999.90;;;23.40;97.80;;;;;;5091193;28;20085;-69
2023/05/15 03:24:32;;;;;;;1999.90;999.90;;;23.40;98.40;;;;;;5086666;28;20131;-70
2023/05/15 03:26:59;;;;;;;1999.90;999.90;;;23.50;98.60;;;;;;5087335;28;20055;-70
2023/05/15 03:29:27;;;;;;;1999.90;999.90;;;23.40;98.80;;;;;;5085150;28;20038;-70
2023/05/15 03:31:54;;;;;;;1999.90;999.90;;;23.50;99.10;;;;;;5086531;28;20081;-69
2023/05/15 03:34:21;;;;;;;1999.90;999.90;;;23.50;99.10;;;;;;5079033;28;20051;-67
2023/05/15 03:36:49;;;;;;;1999.90;999.90;;;23.50;98.20;;;;;;5074618;28;20036;-70
2023/05/15 03:39:16;;;;;;;1999.90;999.90;;;23.50;98.00;;;;;;5083947;28;20025;-70
2023/05/15 03:41:43;;;;;;;1999.90;999.90;;;23.40;98.50;;;;;;5077194;28;20024;-71
2023/05/15 03:44:11;;;;;;;1999.90;999.90;;;23.20;97.90;;;;;;5081404;28;20036;-70
2023/05/15 03:46:38;;;;;;;1999.90;999.90;;;23.10;98.00;;;;;;5082709;28;20040;-70
2023/05/15 03:49:05;;;;;;;1999.90;999.90;;;22.90;98.30;;;;;;5077912;28;20123;-70
2023/05/15 03:51:32;;;;;;;1999.90;999.90;;;22.60;98.50;;;;;;5080266;28;20036;-70
2023/05/15 03:54:00;;;;;;;1999.90;999.90;;;22.30;98.60;;;;;;5060756;28;20028;-70
2023/05/15 03:56:27;;;;;;;1999.90;999.90;;;22.00;99.10;;;;;;5074135;28;20807;-69
2023/05/15 03:58:54;;;;;;;1999.90;999.90;;;21.80;99.20;;;;;;5080165;28;20402;-70
2023/05/15 04:01:22;;;;;;;1999.90;999.90;;;21.70;98.90;;;;;;5073717;28;20032;-69
2023/05/15 04:03:49;;;;;;;1999.90;999.90;;;21.60;99.10;;;;;;5063475;28;20067;-70
2023/05/15 04:06:21;;;;;;;1999.90;999.90;;;21.50;99.50;;;;;;5077006;28;20058;-69
2023/05/15 04:08:49;;;;;;;1999.90;999.90;;;21.30;99.90;;;;;;5083530;28;20029;-69
2023/05/15 04:11:17;;;;;;;1999.90;999.90;;;21.10;99.90;;;;;;5089177;28;20027;-70
2023/05/15 04:13:44;;;;;;;1999.90;999.90;;;21.00;99.90;;;;;;5087894;28;20500;-70
2023/05/15 04:16:12;;;;;;;1999.90;999.90;;;20.80;99.90;;;;;;5078771;28;20036;-70
2023/05/15 04:18:39;;;;;;;1999.90;999.90;;;20.80;99.90;;;;;;5047124;28;20028;-70
2023/05/15 04:21:06;;;;;;;1999.90;999.90;;;20.80;99.90;;;;;;5089519;28;20543;-71
2023/05/15 04:23:35;;;;;;;1999.90;999.90;;;20.70;99.90;;;;;;5095683;28;20036;-71
2023/05/15 04:26:02;;;;;;;1999.90;999.90;;;20.70;99.90;;;;;;5089808;28;20094;-71
2023/05/15 04:28:30;;;;;;;1999.90;999.90;;;20.70;99.90;;;;;;5087362;28;20072;-72
2023/05/15 04:30:58;;;;;;;1999.90;999.90;;;20.70;99.90;;;;;;5084266;28;20062;-69
2023/05/15 04:33:25;;;;;;;1999.90;999.90;;;20.70;99.90;;;;;;5081468;28;20024;-71
2023/05/15 04:35:52;;;;;;;1999.90;999.90;;;20.60;99.90;;;;;;5084180;28;20110;-72
2023/05/15 04:38:20;;;;;;;1999.90;999.90;;;20.60;99.90;;;;;;5083630;28;20126;-70
2023/05/15 04:40:47;;;;;;;1999.90;999.90;;;20.60;99.90;;;;;;5077247;28;20490;-70
2023/05/15 04:43:15;;;;;;;1999.90;999.90;;;20.70;99.90;;;;;;5087289;28;20035;-71
2023/05/15 04:45:42;;;;;;;1999.90;999.90;;;20.80;99.90;;;;;;5085003;28;20126;-70
2023/05/15 04:48:10;;;;;;;1999.90;999.90;;;20.80;99.90;;;;;;5084032;28;20156;-70
2023/05/15 04:50:37;;;;;;;1999.90;999.90;;;20.80;99.90;;;;;;5078862;28;20037;-71
2023/05/15 04:53:05;;;;;;;1999.90;999.90;;;20.80;99.90;;;;;;5088483;28;20500;-69
2023/05/15 04:55:32;;;;;;;1999.90;999.90;;;20.70;99.90;;;;;;5071403;28;20104;-71
2023/05/15 04:58:00;;;;;;;1999.90;999.90;;;20.60;99.90;;;;;;5081127;28;20442;-73
2023/05/15 05:00:28;;;;;;;1999.90;999.90;;;20.60;99.90;;;;;;5066457;28;20081;-69
2023/05/15 05:02:55;;;;;;;1999.90;999.90;;;20.40;99.90;;;;;;5077264;28;20026;-73
2023/05/15 05:05:22;;;;;;;1999.90;999.90;;;20.40;99.90;;;;;;5088918;28;20112;-71
2023/05/15 05:07:50;;;;;;;1999.90;999.90;;;20.30;99.90;;;;;;5088972;28;20069;-72
2023/05/15 05:10:18;;;;;;;1999.90;999.90;;;20.30;99.90;;;;;;5083405;28;20035;-72
2023/05/15 05:12:45;;;;;;;1999.90;999.90;;;20.30;99.90;;;;;;5093892;28;20069;-70
2023/05/15 05:15:13;;;;;;;1999.90;999.90;;;20.30;99.90;;;;;;5086382;28;20036;-71
2023/05/15 05:17:40;;;;;;;1999.90;999.90;;;20.30;99.90;;;;;;5083508;28;20029;-72
2023/05/15 05:20:08;;;;;;;1999.90;999.90;;;20.30;99.90;;;;;;5087701;28;20038;-70
2023/05/15 05:22:35;;;;;;;1999.90;999.90;;;20.30;99.90;;;;;;5088122;28;20032;-70
2023/05/15 05:25:03;;;;;;;1999.90;999.90;;;20.30;99.90;;;;;;5087269;28;20036;-72
2023/05/15 05:27:30;;;;;;;1999.90;999.90;;;20.30;99.90;;;;;;5086765;28;20153;-70
2023/05/15 05:29:58;;;;;;;1999.90;999.90;;;20.20;99.90;;;;;;5085888;28;20081;-69
2023/05/15 05:32:25;;;;;;;1999.90;999.90;;;20.10;99.90;;;;;;5082820;28;20082;-70
2023/05/15 05:34:52;;;;;;;1999.90;999.90;;;20.10;99.90;;;;;;5085597;28;20104;-71
2023/05/15 05:37:20;;;;;;;1999.90;999.90;;;20.10;99.90;;;;;;5084535;28;20036;-71
2023/05/15 05:39:47;;;;;;;1999.90;999.90;;;20.00;99.90;;;;;;5088417;28;20032;-72
2023/05/15 05:42:15;;;;;;;1999.90;999.90;;;20.00;99.90;;;;;;5064548;28;20067;-71
2023/05/15 05:44:42;;;;;;;1999.90;999.90;;;20.00;99.90;;;;;;5076576;28;20493;-70
2023/05/15 05:47:09;;;;;;;1999.90;999.90;;;20.10;99.90;;;;;;5075393;28;20473;-70
2023/05/15 05:49:38;;;;;;;1999.90;999.90;;;20.10;99.90;;;;;;5080002;28;20028;-70
2023/05/15 05:52:08;;;;;;;1999.90;999.90;;;20.10;99.90;;;;;;5074528;28;20060;-69
2023/05/15 05:54:35;;;;;;;1999.90;999.90;;;20.20;99.90;;;;;;5087256;28;20036;-70
2023/05/15 05:57:03;;;;;;;1999.90;999.90;;;20.30;99.90;;;;;;5087534;28;20043;-70
2023/05/15 05:59:30;;;;;;;1999.90;999.90;;;20.30;99.90;;;;;;5081083;28;20049;-72
2023/05/15 06:01:58;;;;;;;1999.90;999.90;;;20.30;99.90;;;;;;5085480;28;20024;-70
2023/05/15 06:04:25;;;;;;;1999.90;999.90;;;20.40;99.90;;;;;;5079410;28;20047;-71
2023/05/15 06:06:53;;;;;;;1999.90;999.90;;;20.40;99.90;;;;;;5085299;28;20671;-71
2023/05/15 06:09:20;;;;;;;1999.90;999.90;;;20.50;99.90;;;;;;5095625;28;20031;-72
2023/05/15 06:11:48;;;;;;;1999.90;999.90;;;20.50;99.90;;;;;;5092504;28;20093;-72
2023/05/15 06:14:15;;;;;;;1999.90;999.90;;;20.60;99.90;;;;;;5089656;28;20028;-71
2023/05/15 06:16:42;;;;;;;1999.90;999.90;;;20.70;99.90;;;;;;5081391;28;20468;-72
2023/05/15 06:19:10;;;;;;;1999.90;999.90;;;20.80;99.90;;;;;;5083020;28;20040;-71
2023/05/15 06:21:37;;;;;;;1999.90;999.90;;;20.90;99.90;;;;;;5085175;28;20118;-71
2023/05/15 06:24:04;;;;;;;1999.90;999.90;;;21.00;99.90;;;;;;5091187;28;20482;-71
2023/05/15 06:26:32;;;;;;;1999.90;999.90;;;21.00;99.90;;;;;;5086528;28;20108;-69
2023/05/15 06:28:59;;;;;;;1999.90;999.90;;;20.90;99.90;;;;;;5084474;28;20573;-71
2023/05/15 06:31:26;;;;;;;1999.90;999.90;;;20.80;99.90;;;;;;5090182;28;20043;-69
2023/05/15 06:33:54;;;;;;;1999.90;999.90;;;20.70;99.90;;;;;;5068557;28;20032;-70
2023/05/15 06:36:21;;;;;;;1999.90;999.90;;;20.50;99.90;;;;;;5094398;28;20456;-70
2023/05/15 06:38:48;;;;;;;1999.90;999.90;;;20.20;99.90;;;;;;5083656;28;20465;-70
2023/05/15 06:41:16;;;;;;;1999.90;999.90;;;20.00;99.90;;;;;;5087968;28;20165;-70
2023/05/15 06:43:43;;;;;;;1999.90;999.90;;;19.80;99.90;;;;;;5090369;28;20032;-70
2023/05/15 06:46:15;;;;;;;1999.90;999.90;;;19.70;99.90;;;;;;5082712;28;20036;-73
2023/05/15 06:48:42;;;;;;;1999.90;999.90;;;19.50;99.90;;;;;;5080918;28;20020;-71
2023/05/15 06:51:09;;;;;;;1999.90;999.90;;;19.40;99.90;;;;;;5086752;28;20038;-72
2023/05/15 06:53:37;;;;;;;1999.90;999.90;;;19.20;99.90;;;;;;5085465;28;20055;-71
2023/05/15 06:56:05;;;;;;;1999.90;999.90;;;18.90;99.90;;;;;;5075507;28;20028;-72
2023/05/15 06:58:32;;;;;;;1999.90;999.90;;;18.80;99.90;;;;;;5081845;28;20036;-72
2023/05/15 07:01:02;;;;;;;1999.90;999.90;;;18.70;99.90;;;;;;5088659;28;20043;-72
2023/05/15 07:03:30;;;;;;;1999.90;999.90;;;18.50;99.90;;;;;;5097894;28;20040;-71
2023/05/15 07:05:57;;;;;;;1999.90;999.90;;;18.40;99.90;;;;;;5077128;28;20078;-72
2023/05/15 07:08:25;;;;;;;1999.90;999.90;;;18.20;99.90;;;;;;5081674;28;20063;-70
2023/05/15 07:10:53;;;;;;;1999.90;999.90;;;18.10;99.90;;;;;;5086649;28;20106;-71
2023/05/15 07:13:21;;;;;;;1999.90;999.90;;;18.00;99.90;;;;;;5091810;28;20028;-69
2023/05/15 07:15:48;;;;;;;1999.90;999.90;;;17.90;99.90;;;;;;5083885;28;20039;-72
2023/05/15 07:18:15;;;;;;;1999.90;999.90;;;17.70;99.90;;;;;;5080888;28;20028;-71
2023/05/15 07:20:43;;;;;;;1999.90;999.90;;;17.60;99.90;;;;;;5080769;28;20477;-71
2023/05/15 07:23:10;;;;;;;1999.90;999.90;;;17.40;99.90;;;;;;5093635;28;20498;-72
2023/05/15 07:25:38;;;;;;;1999.90;999.90;;;17.30;99.90;;;;;;5087452;28;20113;-69
2023/05/15 07:28:05;;;;;;;1999.90;999.90;;;17.20;99.90;;;;;;5090368;28;20103;-70
2023/05/15 07:30:33;;;;;;;1999.90;999.90;;;17.10;99.90;;;;;;5097526;28;20031;-71
2023/05/15 07:33:00;;;;;;;1999.90;999.90;;;17.00;99.90;;;;;;5086520;28;20031;-69
2023/05/15 07:35:27;;;;;;;1999.90;999.90;;;16.90;99.90;;;;;;5094342;28;20042;-71
2023/05/15 07:37:55;;;;;;;1999.90;999.90;;;16.90;99.90;;;;;;5097535;28;20019;-69
2023/05/15 07:40:22;;;;;;;1999.90;999.90;;;16.80;99.90;;;;;;5071370;28;20028;-70
2023/05/15 07:42:50;;;;;;;1999.90;999.90;;;16.80;99.90;;;;;;5095628;28;20049;-70
2023/05/15 07:45:17;;;;;;;1999.90;999.90;;;16.70;99.90;;;;;;5087281;28;20054;-72
2023/05/15 07:47:46;;;;;;;1999.90;999.90;;;16.60;99.90;;;;;;5089809;28;20023;-71
2023/05/15 07:50:14;;;;;;;1999.90;999.90;;;16.60;99.90;;;;;;5089615;28;20448;-71
2023/05/15 07:52:42;;;;;;;1999.90;999.90;;;16.50;99.90;;;;;;5080741;28;20040;-71
2023/05/15 07:55:13;;;;;;;1999.90;999.90;;;16.50;99.90;;;;;;5089799;28;20417;-71
2023/05/15 07:57:40;;;;;;;1999.90;999.90;;;16.50;99.90;;;;;;5089627;28;20029;-70
2023/05/15 08:00:09;;;;;;;1999.90;999.90;;;16.50;99.90;;;;;;5092447;28;20059;-70
2023/05/15 08:02:37;;;;;;;1999.90;999.90;;;16.50;99.90;;;;;;5089928;28;20390;-70
2023/05/15 08:05:05;;;;;;;1999.90;999.90;;;16.30;99.90;;;;;;5090015;28;20036;-69
2023/05/15 08:07:34;;;;;;;1999.90;999.90;;;16.30;99.90;;;;;;5094913;28;20363;-70
2023/05/15 08:10:04;;;;;;;1999.90;999.90;;;16.20;99.90;;;;;;5093892;28;20035;-70
2023/05/15 08:12:32;;;;;;;1999.90;999.90;;;16.10;99.90;;;;;;5091175;28;20020;-72
2023/05/15 08:14:59;;;;;;;1999.90;999.90;;;16.00;99.90;;;;;;5088618;28;20517;-71
2023/05/15 08:17:26;;;;;;;1999.90;999.90;;;16.00;99.90;;;;;;5090592;28;20039;-71
2023/05/15 08:19:54;;;;;;;1999.90;999.90;;;15.90;99.90;;;;;;5091736;28;20028;-71
2023/05/15 08:22:22;;;;;;;1999.90;999.90;;;15.90;99.90;;;;;;5085899;28;20022;-69
2023/05/15 08:24:49;;;;;;;1999.90;999.90;;;15.90;99.90;;;;;;5085371;28;20040;-71
2023/05/15 08:27:18;;;;;;;1999.90;999.90;;;15.90;99.90;;;;;;5088780;28;20107;-70
2023/05/15 08:29:46;;;;;;;1999.90;999.90;;;15.90;99.90;;;;;;5088947;28;20077;-70
2023/05/15 08:32:13;;;;;;;1999.90;999.90;;;15.90;99.90;;;;;;5085433;28;20387;-69
2023/05/15 08:34:42;;;;;;;1999.90;999.90;;;15.90;99.90;;;;;;5074809;28;20093;-70
2023/05/15 08:37:09;;;;;;;1999.90;999.90;;;15.90;99.90;;;;;;5088467;28;20032;-70
2023/05/15 08:39:36;;;;;;;1999.90;999.90;;;15.90;99.90;;;;;;5082062;28;20055;-72
2023/05/15 08:42:22;;;;;;;1999.90;999.90;;;15.80;99.90;;;;;;5087619;28;20347;-69
2023/05/15 08:44:50;;;;;;;1999.90;999.90;;;15.70;99.90;;;;;;5087580;28;20039;-72
2023/05/15 08:47:19;;;;;;;1999.90;999.90;;;15.60;99.90;;;;;;5090392;28;20050;-71
2023/05/15 08:50:07;;;;;;;1999.90;999.90;;;15.60;99.90;;;;;;5082397;28;20024;-70
2023/05/15 08:52:35;;;;;;;1999.90;999.90;;;15.50;99.90;;;;;;5086950;28;20066;-71
2023/05/15 08:55:03;;;;;;;1999.90;999.90;;;15.50;99.90;;;;;;5084141;28;20032;-70
2023/05/15 08:57:32;;;;;;;1999.90;999.90;;;15.40;99.90;;;;;;5091187;28;20028;-71
2023/05/15 09:00:00;;;;;;;1999.90;999.90;;;15.40;99.90;;;;;;5088256;28;20060;-71
2023/05/15 09:02:28;;;;;;;1999.90;999.90;;;15.30;99.90;;;;;;5087603;28;20061;-70
2023/05/15 09:04:55;;;;;;;1999.90;999.90;;;15.30;99.90;;;;;;5085628;28;20050;-72
2023/05/15 09:07:26;;;;;;;1999.90;999.90;;;15.20;99.90;;;;;;5086165;28;20060;-70
2023/05/15 09:09:53;;;;;;;1999.90;999.90;;;15.20;99.90;;;;;;5085751;28;20137;-70
2023/05/15 09:12:23;;;;;;;1999.90;999.90;;;15.10;99.90;;;;;;5090233;28;20549;-71
2023/05/15 09:14:51;;;;;;;1999.90;999.90;;;15.10;99.90;;;;;;5082544;28;20139;-72
2023/05/15 09:17:18;;;;;;;1999.90;999.90;;;15.10;99.90;;;;;;5096726;28;20020;-70
2023/05/15 09:19:45;;;;;;;1999.90;999.90;;;15.10;99.90;;;;;;5100035;28;20028;-71
2023/05/15 09:22:22;;;;;;;1999.90;999.90;;;15.10;99.90;;;;;;5093923;28;21260;-71
2023/05/15 09:24:51;;;;;;;1999.90;999.90;;;15.00;99.90;;;;;;5089794;28;20036;-71
2023/05/15 09:27:19;;;;;;;1999.90;999.90;;;15.00;99.90;;;;;;5100332;28;20024;-71
2023/05/15 09:29:50;;;;;;;1999.90;999.90;;;14.90;99.90;;;;;;5087427;28;20039;-71
2023/05/15 09:32:18;;;;;;;1999.90;999.90;;;14.80;99.90;;;;;;5085303;28;20042;-70
2023/05/15 09:34:46;;;;;;;1999.90;999.90;;;14.70;99.90;;;;;;5083870;28;20034;-70
2023/05/15 09:37:32;;;;;;;1999.90;999.90;;;14.70;99.90;;;;;;5091136;28;20032;-69
2023/05/15 09:40:10;;;;;;;1999.90;999.90;;;14.70;99.90;;;;;;5086876;28;20027;-70
2023/05/15 09:42:38;;;;;;;1999.90;999.90;;;14.60;99.90;;;;;;5084074;28;20032;-71
2023/05/15 09:45:06;;;;;;;1999.90;999.90;;;14.60;99.90;;;;;;5084738;28;20040;-71
2023/05/15 09:47:34;;;;;;;1999.90;999.90;;;14.50;99.90;;;;;;5088071;28;20102;-71
2023/05/15 09:50:01;;;;;;;1999.90;999.90;;;14.50;99.90;;;;;;5076387;28;20040;-70
2023/05/15 09:52:29;;;;;;;1999.90;999.90;;;14.50;99.90;;;;;;5088217;28;20020;-70
2023/05/15 09:54:56;;;;;;;1999.90;999.90;;;14.40;99.90;;;;;;5088788;28;20115;-70
2023/05/15 09:57:24;;;;;;;1999.90;999.90;;;14.40;99.90;;;;;;5095469;28;20027;-70
2023/05/15 09:59:52;;;;;;;1999.90;999.90;;;14.30;99.90;;;;;;5079665;28;20044;-71
2023/05/15 10:02:34;;;;;;;1999.90;999.90;;;14.30;99.90;;;;;;5090722;28;20092;-71
2023/05/15 10:05:01;;;;;;;1999.90;999.90;;;14.30;99.90;;;;;;5086278;28;20618;-71
2023/05/15 10:07:36;;;;;;;1999.90;999.90;;;14.30;99.90;;;;;;5081605;28;20031;-70
2023/05/15 10:10:05;;;;;;;1999.90;999.90;;;14.30;99.90;;;;;;5066292;28;20031;-72
2023/05/15 10:12:35;;;;;;;1999.90;999.90;;;14.30;99.90;;;;;;5083453;28;20512;-69
2023/05/15 10:15:03;;;;;;;1999.90;999.90;;;14.20;99.90;;;;;;5085687;28;20097;-70
2023/05/15 10:17:35;;;;;;;1999.90;999.90;;;14.30;99.90;;;;;;5089258;28;20027;-70
2023/05/15 10:20:07;;;;;;;1999.90;999.90;;;14.30;99.90;;;;;;5083686;28;20028;-70
2023/05/15 10:22:40;;;;;;;1999.90;999.90;;;14.30;99.90;;;;;;5085315;28;20031;-70
2023/05/15 10:25:42;;;;;;;1999.90;999.90;;;14.20;99.90;;;;;;5082591;28;20506;-70
2023/05/15 10:28:11;;;;;;;1999.90;999.90;;;14.20;99.90;;;;;;5085135;28;20054;-71
2023/05/15 10:30:39;;;;;;;1999.90;999.90;;;14.20;99.90;;;;;;5085655;28;20028;-70
2023/05/15 10:33:07;;;;;;;1999.90;999.90;;;14.20;99.90;;;;;;5088504;28;20085;-71
2023/05/15 10:35:36;;;;;;;1999.90;999.90;;;14.20;99.90;;;;;;5083151;28;20093;-70
2023/05/15 10:38:08;;;;;;;1999.90;999.90;;;14.10;99.90;;;;;;5097251;28;20103;-70
2023/05/15 10:40:39;;;;;;;1999.90;999.90;;;14.10;99.90;;;;;;5087269;28;20028;-71
2023/05/15 10:43:10;;;;;;;1999.90;999.90;;;14.00;99.90;;;;;;5089893;28;20024;-71
2023/05/15 10:45:38;;;;;;;1999.90;999.90;;;14.00;99.90;;;;;;5102766;28;20047;-70
2023/05/15 10:48:07;;;;;;;1999.90;999.90;;;14.00;99.90;;;;;;5090889;28;20085;-70
2023/05/15 10:50:37;;;;;;;1999.90;999.90;;;14.00;99.90;;;;;;5092398;28;20477;-70
2023/05/15 10:53:05;;;;;;;1999.90;999.90;;;13.90;99.90;;;;;;5102624;28;20413;-70
2023/05/15 10:55:32;;;;;;;1999.90;999.90;;;13.90;99.90;;;;;;5095623;28;20039;-70
2023/05/15 10:57:59;;;;;;;1999.90;999.90;;;13.80;99.90;;;;;;5096178;28;20470;-70
2023/05/15 11:00:30;;;;;;;1999.90;999.90;;;13.80;99.90;;;;;;5082805;28;20056;-70
2023/05/15 11:02:58;;;;;;;1999.90;999.90;;;13.80;99.90;;;;;;5090227;28;20102;-72
2023/05/15 11:05:26;;;;;;;1999.90;999.90;;;13.80;99.90;;;;;;5072179;28;20040;-71
2023/05/15 11:08:24;;;;;;;1999.90;999.90;;;13.80;99.90;;;;;;5072068;28;20803;-71
2023/05/15 11:10:53;;;;;;;1999.90;999.90;;;13.80;99.90;;;;;;5059744;28;20048;-71
2023/05/15 11:13:20;;;;;;;1999.90;999.90;;;13.80;99.90;;;;;;5094215;28;20036;-71
2023/05/15 11:15:48;;;;;;;1999.90;999.90;;;13.70;99.90;;;;;;5091460;28;20038;-71
2023/05/15 11:18:16;;;;;;;1999.90;999.90;;;13.70;99.90;;;;;;5098507;28;20110;-71
2023/05/15 11:20:52;;;;;;;1999.90;999.90;;;13.70;99.90;;;;;;5091915;28;20122;-70
2023/05/15 11:23:24;;;;;;;1999.90;999.90;;;13.60;99.90;;;;;;5097719;28;20102;-70
2023/05/15 11:25:56;;;;;;;1999.90;999.90;;;13.50;99.90;;;;;;5097214;28;20031;-72
2023/05/15 11:28:25;;;;;;;1999.90;999.90;;;13.40;99.90;;;;;;5100858;28;20154;-71
2023/05/15 11:30:58;;;;;;;1999.90;999.90;;;13.30;99.90;;;;;;5098499;28;20030;-71
2023/05/15 11:33:32;;;;;;;1999.90;999.90;;;13.30;99.90;;;;;;5093794;28;20031;-69
2023/05/15 11:36:00;;;;;;;1999.90;999.90;;;13.20;99.90;;;;;;5093580;28;20040;-71
2023/05/15 11:38:28;;;;;;;1999.90;999.90;;;13.20;99.90;;;;;;5098125;28;20505;-71
2023/05/15 11:41:03;;;;;;;1999.90;999.90;;;13.10;99.90;;;;;;5073500;28;20397;-70
2023/05/15 11:43:37;;;;;;;1999.90;999.90;;;13.10;99.90;;;;;;5096282;28;20039;-70
2023/05/15 11:46:11;;;;;;;1999.90;999.90;;;13.10;99.90;;;;;;5095500;28;20438;-70
2023/05/15 11:48:49;;;;;;;1999.90;999.90;;;13.10;99.90;;;;;;5076267;28;20020;-70
2023/05/15 11:51:24;;;;;;;1999.90;999.90;;;13.10;99.90;;;;;;5087809;28;20028;-71
2023/05/15 11:53:54;;;;;;;1999.90;999.90;;;13.00;99.90;;;;;;5086180;28;20098;-71
2023/05/15 11:56:24;;;;;;;1999.90;999.90;;;13.00;99.90;;;;;;5093551;28;20035;-70
2023/05/15 11:58:54;;;;;;;1999.90;999.90;;;13.00;99.90;;;;;;5090930;28;20035;-70
2023/05/15 12:01:22;;;;;;;1999.90;999.90;;;13.00;99.90;;;;;;5090849;28;20040;-69
2023/05/15 12:03:50;;;;;;;1999.90;999.90;;;13.00;99.90;;;;;;5078080;28;20056;-71
2023/05/15 12:06:18;;;;;;;1999.90;999.90;;;13.00;99.90;;;;;;5081762;28;20440;-69
2023/05/15 12:08:51;;;;;;;1999.90;999.90;;;13.00;99.90;;;;;;5074758;28;20028;-70